Terminal Aerodrome Forecast
Issued by NWS

Current Version | Previous Version | Text Only | Print | Product List | Glossary On
Versions: 1 2 3 4 5 6 7 8 9 10 11 12 13 14 15 16 17
000
FTUS44 KBMX 272200 AAB
TAFEET
TAF AMD
KEET 272200Z 2722/2818 28007KT P6SM VCTS BKN050CB
     FM272230 32017G30KT 2SM +TSRA BR BKN040CB
     FM280200 04004KT P6SM BKN150=

USA.gov is the U.S. government's official web portal to all federal, state and local government web resources and services.